createdAt,value
2023-03-26T00:01:46.763Z,0.82
2023-03-26T00:04:49.987Z,0.70
2023-03-26T00:07:52.145Z,0.90
2023-03-26T00:10:54.332Z,0.75
2023-03-26T00:13:57.820Z,0.80
2023-03-26T00:17:00.392Z,1.00
2023-03-26T00:20:03.201Z,0.70
2023-03-26T00:23:05.464Z,0.60
2023-03-26T00:26:10.554Z,0.70
2023-03-26T00:29:14.016Z,0.50
2023-03-26T00:32:16.847Z,0.57
2023-03-26T00:35:19.210Z,0.60
2023-03-26T00:38:23.992Z,0.70
2023-03-26T00:41:27.125Z,0.60
2023-03-26T00:44:29.367Z,0.60
2023-03-26T00:47:31.791Z,0.70
2023-03-26T00:50:34.051Z,0.65
2023-03-26T00:53:38.888Z,0.80
2023-03-26T00:56:41.186Z,0.88
2023-03-26T00:59:43.417Z,0.57
2023-03-26T01:02:46.233Z,0.68
2023-03-26T01:05:55.936Z,0.70
2023-03-26T01:09:00.534Z,0.60
2023-03-26T01:12:05.255Z,0.60
2023-03-26T01:15:08.360Z,0.70
2023-03-26T01:18:14.107Z,0.80
2023-03-26T01:21:22.848Z,0.60
2023-03-26T01:24:25.221Z,0.80
2023-03-26T01:27:33.657Z,0.82
2023-03-26T01:30:52.454Z,0.90
2023-03-26T01:34:07.258Z,0.60
2023-03-26T01:37:32.654Z,0.60
2023-03-26T01:40:42.635Z,0.80
2023-03-26T01:43:56.179Z,0.70
2023-03-26T01:46:59.867Z,0.70
2023-03-26T01:50:02.133Z,0.80
2023-03-26T01:53:04.842Z,0.98
2023-03-26T01:56:25.966Z,0.80
2023-03-26T01:59:31.300Z,0.75
2023-03-26T02:03:05.001Z,0.80
2023-03-26T02:06:17.557Z,0.90
2023-03-26T02:09:23.980Z,0.60
2023-03-26T02:12:26.753Z,0.90
2023-03-26T02:15:28.932Z,0.70
2023-03-26T02:18:36.431Z,0.70
2023-03-26T02:21:38.684Z,1.05
2023-03-26T02:24:43.802Z,0.80
2023-03-26T02:27:46.975Z,0.88
2023-03-26T02:30:49.117Z,0.93
2023-03-26T02:33:51.303Z,1.00
2023-03-26T02:36:53.651Z,0.90
2023-03-26T02:39:56.369Z,0.73
2023-03-26T02:42:58.813Z,0.70
2023-03-26T02:46:01.073Z,0.88
2023-03-26T02:49:03.301Z,0.60
2023-03-26T02:52:06.714Z,0.95
2023-03-26T02:55:09.346Z,0.80
2023-03-26T02:58:12.589Z,0.75
2023-03-26T03:01:18.538Z,0.80
2023-03-26T03:04:21.403Z,0.75
2023-03-26T03:07:25.177Z,0.70
2023-03-26T03:10:28.167Z,0.80
2023-03-26T03:13:30.371Z,0.60
2023-03-26T03:16:33.235Z,0.70
2023-03-26T03:19:35.447Z,0.80
2023-03-26T03:22:37.702Z,0.90
2023-03-26T03:25:41.176Z,0.70
2023-03-26T03:28:45.104Z,0.60
2023-03-26T03:31:47.324Z,0.88
2023-03-26T03:34:52.550Z,0.73
2023-03-26T03:37:54.755Z,1.25
2023-03-26T03:40:56.941Z,0.85
2023-03-26T03:44:01.567Z,0.80
2023-03-26T03:47:03.872Z,0.80
2023-03-26T03:50:06.992Z,0.90
2023-03-26T03:53:09.192Z,1.83
2023-03-26T03:56:13.904Z,0.80
2023-03-26T03:59:16.086Z,0.90
2023-03-26T04:02:30.400Z,1.00
2023-03-26T04:05:33.702Z,1.23
2023-03-26T04:08:36.399Z,1.00
2023-03-26T04:11:38.594Z,0.93
2023-03-26T04:14:41.161Z,0.73
2023-03-26T04:17:43.923Z,1.02
2023-03-26T04:20:46.545Z,0.90
2023-03-26T04:23:48.984Z,1.02
2023-03-26T04:26:51.192Z,1.02
2023-03-26T04:29:53.448Z,0.93
2023-03-26T04:32:58.611Z,0.77
2023-03-26T04:36:04.120Z,0.80
2023-03-26T04:39:06.741Z,1.00
2023-03-26T04:42:10.172Z,0.90
2023-03-26T04:45:14.236Z,0.98
2023-03-26T04:48:16.439Z,1.15
2023-03-26T04:51:21.961Z,1.20
2023-03-26T04:54:24.662Z,1.30
2023-03-26T04:57:35.069Z,1.40
2023-03-26T05:00:37.221Z,1.60
2023-03-26T05:03:41.418Z,2.03
2023-03-26T05:06:43.776Z,1.80
2023-03-26T05:09:46.165Z,1.20
2023-03-26T05:12:48.674Z,1.25
2023-03-26T05:15:51.027Z,1.40
2023-03-26T05:18:54.090Z,1.87
2023-03-26T05:21:56.448Z,1.00
2023-03-26T05:24:58.633Z,1.30
2023-03-26T05:28:01.784Z,0.90
2023-03-26T05:31:04.044Z,0.93
2023-03-26T05:34:06.790Z,1.83
2023-03-26T05:37:09.304Z,1.12
2023-03-26T05:40:14.763Z,1.25
2023-03-26T05:43:16.898Z,0.82
2023-03-26T05:46:20.432Z,1.60
2023-03-26T05:49:22.740Z,1.00
2023-03-26T05:52:25.186Z,0.80
2023-03-26T05:55:27.796Z,0.93
2023-03-26T05:58:33.226Z,1.15
2023-03-26T06:01:35.460Z,1.60
2023-03-26T06:04:41.282Z,1.23
2023-03-26T06:07:43.583Z,0.90
2023-03-26T06:10:45.764Z,3.00
2023-03-26T06:13:47.975Z,1.25
2023-03-26T06:16:50.162Z,0.93
2023-03-26T06:19:52.326Z,0.70
2023-03-26T06:22:54.501Z,0.80
2023-03-26T06:25:56.864Z,2.33
2023-03-26T06:28:59.053Z,1.50
2023-03-26T06:32:12.474Z,1.00
2023-03-26T06:35:21.059Z,0.75
2023-03-26T06:38:23.332Z,0.70
2023-03-26T06:41:25.794Z,1.05
2023-03-26T06:44:28.094Z,0.90
2023-03-26T06:47:30.244Z,0.60
2023-03-26T06:50:33.121Z,0.60
2023-03-26T06:53:35.924Z,0.60
2023-03-26T06:56:38.198Z,0.60
2023-03-26T06:59:40.512Z,0.70
2023-03-26T07:02:42.756Z,0.95
2023-03-26T07:05:44.985Z,0.50
2023-03-26T07:08:47.244Z,0.62
2023-03-26T07:11:49.434Z,0.80
2023-03-26T07:14:51.651Z,0.60
2023-03-26T07:17:53.902Z,0.77
2023-03-26T07:20:56.594Z,0.60
2023-03-26T07:23:59.241Z,0.43
2023-03-26T07:27:57.156Z,0.60
2023-03-26T07:31:15.873Z,0.88
2023-03-26T07:34:45.961Z,0.50
2023-03-26T07:38:14.074Z,1.00
2023-03-26T07:41:27.620Z,0.68
2023-03-26T07:44:45.474Z,0.60
2023-03-26T07:47:49.680Z,0.57
2023-03-26T07:50:52.501Z,0.40
2023-03-26T07:53:55.605Z,0.50
2023-03-26T07:57:09.675Z,0.50
2023-03-26T08:00:16.329Z,0.50
2023-03-26T08:03:22.081Z,0.40
2023-03-26T08:06:32.890Z,0.75
2023-03-26T08:10:02.899Z,0.62
2023-03-26T08:13:33.058Z,0.50
2023-03-26T08:16:44.257Z,0.52
2023-03-26T08:19:57.934Z,0.45
2023-03-26T08:23:09.568Z,0.40
2023-03-26T08:26:23.912Z,0.60
2023-03-26T08:29:55.703Z,1.10
2023-03-26T08:33:00.729Z,0.60
2023-03-26T08:36:03.002Z,0.40
2023-03-26T08:39:06.195Z,0.62
2023-03-26T08:42:20.486Z,0.60
2023-03-26T08:46:00.375Z,0.73
2023-03-26T08:49:40.793Z,0.52
2023-03-26T08:53:08.565Z,0.60
2023-03-26T08:56:27.430Z,0.70
2023-03-26T08:59:51.300Z,0.70
2023-03-26T09:03:08.443Z,0.50
2023-03-26T09:06:25.591Z,0.60
2023-03-26T09:10:09.415Z,0.70
2023-03-26T09:13:53.060Z,0.60
2023-03-26T09:17:36.697Z,0.57
2023-03-26T09:21:00.331Z,0.90
2023-03-26T09:24:25.530Z,0.50
2023-03-26T09:27:52.507Z,0.50
2023-03-26T09:31:07.720Z,0.50
2023-03-26T09:35:05.423Z,0.70
2023-03-26T09:38:25.679Z,0.73
2023-03-26T09:41:31.005Z,0.70
2023-03-26T09:44:48.309Z,0.60
2023-03-26T09:47:50.437Z,0.50
2023-03-26T09:50:58.805Z,0.68
2023-03-26T09:54:44.250Z,0.60
2023-03-26T09:58:02.226Z,0.77
2023-03-26T10:01:25.814Z,0.40
2023-03-26T10:04:46.799Z,0.75
2023-03-26T10:08:32.348Z,0.75
2023-03-26T10:11:56.540Z,0.40
2023-03-26T10:15:17.247Z,0.40
2023-03-26T10:18:28.497Z,0.60
2023-03-26T10:21:44.703Z,0.70
2023-03-26T10:25:08.266Z,0.50
2023-03-26T10:28:26.599Z,0.70
2023-03-26T10:31:51.556Z,0.50
2023-03-26T10:35:19.656Z,0.50
2023-03-26T10:38:33.094Z,0.62
2023-03-26T10:41:45.278Z,0.60
2023-03-26T10:45:25.093Z,0.60
2023-03-26T10:48:33.499Z,0.52
2023-03-26T10:52:03.882Z,0.60
2023-03-26T10:55:15.099Z,0.75
2023-03-26T10:58:49.339Z,0.62
2023-03-26T11:02:04.201Z,0.60
2023-03-26T11:05:27.926Z,0.40
2023-03-26T11:08:31.092Z,0.70
2023-03-26T11:12:03.399Z,0.60
2023-03-26T11:16:03.060Z,0.70
2023-03-26T11:19:16.938Z,0.70
2023-03-26T11:22:33.723Z,0.65
2023-03-26T11:25:39.224Z,0.73
2023-03-26T11:29:31.386Z,0.80
2023-03-26T11:32:42.743Z,0.65
2023-03-26T11:35:48.876Z,0.60
2023-03-26T11:38:52.291Z,0.73
2023-03-26T11:42:08.085Z,0.60
2023-03-26T11:45:19.717Z,0.90
2023-03-26T11:48:30.702Z,0.43
2023-03-26T11:51:35.179Z,0.70
2023-03-26T11:54:38.840Z,0.52
2023-03-26T11:57:45.535Z,0.52
2023-03-26T12:00:48.763Z,0.60
2023-03-26T12:04:13.584Z,0.73
2023-03-26T12:07:18.821Z,0.60
2023-03-26T12:10:28.772Z,0.82
2023-03-26T12:13:39.563Z,0.70
2023-03-26T12:16:59.387Z,0.70
2023-03-26T12:20:22.654Z,0.80
2023-03-26T12:24:00.319Z,0.60
2023-03-26T12:27:25.583Z,0.80
2023-03-26T12:30:37.386Z,0.65
2023-03-26T12:33:40.542Z,0.60
2023-03-26T12:36:55.305Z,0.60
2023-03-26T12:40:28.563Z,0.80
2023-03-26T12:44:55.536Z,0.50
2023-03-26T12:47:57.631Z,0.52
2023-03-26T12:51:08.575Z,0.68
2023-03-26T12:54:37.318Z,0.70
2023-03-26T12:58:13.738Z,0.70
2023-03-26T13:01:41.913Z,0.60
2023-03-26T13:05:06.532Z,0.50
2023-03-26T13:08:33.951Z,0.50
2023-03-26T13:12:30.375Z,0.52
2023-03-26T13:15:36.800Z,0.43
2023-03-26T13:19:00.379Z,0.40
2023-03-26T13:22:27.434Z,0.40
2023-03-26T13:25:52.723Z,0.50
2023-03-26T13:29:06.979Z,0.50
2023-03-26T13:32:57.599Z,0.70
2023-03-26T13:36:21.634Z,0.70
2023-03-26T13:39:37.287Z,0.50
2023-03-26T13:43:01.419Z,0.32
2023-03-26T13:46:11.562Z,0.50
2023-03-26T13:49:16.587Z,0.37
2023-03-26T13:52:35.356Z,0.60
2023-03-26T13:55:50.387Z,0.60
2023-03-26T13:58:56.618Z,0.50
2023-03-26T14:02:11.998Z,0.40
2023-03-26T14:05:28.048Z,1.02
2023-03-26T14:08:36.888Z,0.65
2023-03-26T14:11:56.637Z,0.60
2023-03-26T14:15:21.948Z,0.60
2023-03-26T14:18:36.341Z,0.70
2023-03-26T14:21:44.641Z,0.80
2023-03-26T14:25:08.649Z,1.60
2023-03-26T14:28:15.677Z,0.90
2023-03-26T14:31:37.132Z,2.08
2023-03-26T14:34:46.916Z,1.10
2023-03-26T14:37:58.616Z,1.83
2023-03-26T14:41:22.987Z,0.85
2023-03-26T14:44:49.935Z,0.60
2023-03-26T14:47:54.966Z,1.20
2023-03-26T14:51:26.288Z,1.27
2023-03-26T14:54:31.658Z,1.08
2023-03-26T14:57:55.406Z,0.40
2023-03-26T15:01:22.922Z,0.85
2023-03-26T15:04:34.586Z,0.57
2023-03-26T15:07:53.290Z,1.48
2023-03-26T15:11:25.721Z,1.37
2023-03-26T15:14:56.947Z,1.20
2023-03-26T15:21:28.669Z,0.90
2023-03-26T15:24:49.795Z,0.73
2023-03-26T15:28:15.423Z,1.50
2023-03-26T15:31:37.012Z,1.60
2023-03-26T15:35:14.890Z,1.00
2023-03-26T15:38:35.546Z,0.85
2023-03-26T15:42:13.240Z,1.07
2023-03-26T15:45:22.569Z,0.68
2023-03-26T15:48:43.670Z,0.60
2023-03-26T15:55:26.248Z,0.50
2023-03-26T15:58:33.085Z,1.27
2023-03-26T16:01:42.703Z,0.60
2023-03-26T16:04:51.789Z,0.50
2023-03-26T16:08:14.829Z,0.60
2023-03-26T16:11:43.206Z,1.05
2023-03-26T16:14:47.768Z,0.70
2023-03-26T16:18:19.145Z,1.30
2023-03-26T16:24:39.383Z,1.48
2023-03-26T16:27:42.060Z,1.73
2023-03-26T16:30:46.122Z,3.25
2023-03-26T16:34:09.247Z,3.22
2023-03-26T16:37:36.540Z,3.17
2023-03-26T16:41:00.144Z,2.15
2023-03-26T16:44:13.709Z,4.03
2023-03-26T16:47:32.319Z,2.62
2023-03-26T16:50:49.991Z,3.17
2023-03-26T16:54:22.772Z,1.95
2023-03-26T16:57:44.022Z,1.73
2023-03-26T17:00:55.590Z,2.60
2023-03-26T17:04:01.221Z,1.92
2023-03-26T17:07:14.151Z,1.77
2023-03-26T17:10:31.919Z,2.33
2023-03-26T17:13:40.830Z,2.05
2023-03-26T17:16:49.999Z,2.72
2023-03-26T17:20:23.340Z,3.50
2023-03-26T17:23:49.275Z,3.37
2023-03-26T17:27:00.977Z,2.40
2023-03-26T17:30:35.162Z,1.90
2023-03-26T17:33:39.250Z,2.30
2023-03-26T17:36:42.739Z,1.42
2023-03-26T17:39:47.742Z,2.55
2023-03-26T17:43:11.595Z,1.70
2023-03-26T17:46:50.221Z,1.58
2023-03-26T17:50:04.604Z,1.90
2023-03-26T17:53:17.785Z,2.15
2023-03-26T17:56:25.414Z,1.55
2023-03-26T17:59:28.610Z,1.77
2023-03-26T18:03:06.270Z,1.65
2023-03-26T18:06:14.017Z,1.70
2023-03-26T18:09:48.267Z,2.17
2023-03-26T18:13:15.283Z,2.33
2023-03-26T18:16:32.174Z,2.40
2023-03-26T18:19:55.133Z,2.05
2023-03-26T18:22:58.831Z,2.20
2023-03-26T18:26:16.367Z,1.92
2023-03-26T18:29:38.195Z,2.00
2023-03-26T18:33:07.581Z,1.77
2023-03-26T18:36:11.380Z,2.53
2023-03-26T18:39:14.001Z,2.35
2023-03-26T18:42:24.347Z,2.20
2023-03-26T18:45:42.936Z,2.30
2023-03-26T18:48:46.485Z,1.83
2023-03-26T18:51:56.849Z,1.80
2023-03-26T18:54:59.989Z,1.85
2023-03-26T18:58:31.156Z,2.42
2023-03-26T19:01:36.690Z,2.08
2023-03-26T19:04:39.764Z,1.50
2023-03-26T19:07:42.888Z,1.30
2023-03-26T19:10:48.046Z,2.62
2023-03-26T19:13:59.969Z,1.83
2023-03-26T19:17:05.518Z,1.60
2023-03-26T19:20:15.227Z,1.80
2023-03-26T19:23:21.260Z,1.58
2023-03-26T19:26:23.866Z,2.08
2023-03-26T19:29:32.255Z,2.17
2023-03-26T19:32:35.194Z,2.10
2023-03-26T19:35:39.810Z,2.22
2023-03-26T19:38:44.941Z,2.17
2023-03-26T19:41:51.152Z,1.87
2023-03-26T19:44:53.865Z,2.15
2023-03-26T19:48:07.768Z,2.05
2023-03-26T19:51:23.284Z,2.20
2023-03-26T19:54:26.503Z,1.70
2023-03-26T19:57:32.022Z,2.20
2023-03-26T20:00:34.835Z,1.85
2023-03-26T20:03:40.586Z,2.03
2023-03-26T20:10:06.491Z,2.55
2023-03-26T20:13:16.344Z,1.95
2023-03-26T20:16:29.110Z,2.10
2023-03-26T20:19:31.632Z,2.35
2023-03-26T20:22:33.845Z,2.03
2023-03-26T20:25:36.346Z,1.92
2023-03-26T20:28:47.568Z,2.17
2023-03-26T20:31:50.931Z,2.42
2023-03-26T20:34:53.395Z,2.08
2023-03-26T20:37:55.784Z,1.08
2023-03-26T20:40:58.361Z,1.37
2023-03-26T20:44:01.039Z,1.95
2023-03-26T20:47:03.862Z,1.70
2023-03-26T20:50:07.121Z,1.25
2023-03-26T20:53:14.978Z,1.80
2023-03-26T20:56:18.829Z,1.70
2023-03-26T20:59:26.713Z,1.77
2023-03-26T21:02:29.344Z,1.35
2023-03-26T21:05:32.402Z,1.62
2023-03-26T21:08:34.792Z,1.58
2023-03-26T21:11:45.886Z,1.85
2023-03-26T21:14:48.345Z,1.73
2023-03-26T21:17:52.080Z,2.55
2023-03-26T21:21:22.338Z,1.87
2023-03-26T21:24:35.206Z,2.40
2023-03-26T21:27:46.596Z,2.05
2023-03-26T21:33:51.960Z,1.98
2023-03-26T21:36:54.651Z,1.92
2023-03-26T21:39:57.274Z,1.90
2023-03-26T21:42:59.744Z,1.95
2023-03-26T21:46:02.322Z,1.98
2023-03-26T21:49:04.799Z,1.77
2023-03-26T21:52:07.667Z,1.80
2023-03-26T21:55:11.553Z,1.92
2023-03-26T21:58:26.853Z,1.87
2023-03-26T22:02:26.505Z,1.75
2023-03-26T22:05:41.115Z,1.45
2023-03-26T22:08:43.473Z,2.55
2023-03-26T22:11:45.658Z,1.98
2023-03-26T22:14:47.867Z,1.75
2023-03-26T22:17:55.961Z,1.50
2023-03-26T22:20:59.899Z,1.30
2023-03-26T22:24:03.868Z,1.75
2023-03-26T22:27:08.385Z,1.98
2023-03-26T22:30:12.177Z,1.45
2023-03-26T22:33:14.444Z,1.50
2023-03-26T22:36:23.432Z,1.10
2023-03-26T22:39:25.932Z,1.85
2023-03-26T22:42:28.355Z,1.62
2023-03-26T22:45:30.578Z,1.60
2023-03-26T22:48:33.298Z,2.00
2023-03-26T22:51:35.715Z,1.90
2023-03-26T22:54:38.697Z,1.80
2023-03-26T22:57:41.409Z,1.37
2023-03-26T23:00:45.410Z,1.90
2023-03-26T23:03:47.711Z,1.65
2023-03-26T23:06:49.886Z,1.90
2023-03-26T23:09:53.079Z,1.62
2023-03-26T23:12:55.269Z,1.98
2023-03-26T23:15:57.463Z,2.00
2023-03-26T23:18:59.748Z,1.48
2023-03-26T23:22:01.956Z,1.08
2023-03-26T23:25:04.358Z,1.23
2023-03-26T23:28:06.596Z,1.12
2023-03-26T23:31:10.287Z,1.10
2023-03-26T23:34:13.641Z,0.93
2023-03-26T23:37:22.849Z,1.70
2023-03-26T23:40:25.136Z,0.77
2023-03-26T23:43:27.765Z,0.60
2023-03-26T23:46:33.109Z,0.60
2023-03-26T23:49:35.399Z,0.80
2023-03-26T23:52:37.647Z,1.00
2023-03-26T23:55:40.085Z,0.70
2023-03-26T23:58:42.953Z,1.08
